sensor_id;sensor_type;location;lat;lon;timestamp;P1;durP1;ratioP1;P2;durP2;ratioP2
26946;SDS011;14501;52.282;10.560;2023-05-27T00:02:06;20.13;;;6.95;;
26946;SDS011;14501;52.282;10.560;2023-05-27T00:04:31;21.75;;;6.13;;
26946;SDS011;14501;52.282;10.560;2023-05-27T00:06:57;17.27;;;6.47;;
26946;SDS011;14501;52.282;10.560;2023-05-27T00:09:23;15.90;;;6.82;;
26946;SDS011;14501;52.282;10.560;2023-05-27T00:11:48;18.88;;;8.18;;
26946;SDS011;14501;52.282;10.560;2023-05-27T00:14:14;20.02;;;6.85;;
26946;SDS011;14501;52.282;10.560;2023-05-27T00:16:42;12.63;;;6.15;;
26946;SDS011;14501;52.282;10.560;2023-05-27T00:19:08;15.30;;;6.35;;
26946;SDS011;14501;52.282;10.560;2023-05-27T00:21:33;12.73;;;6.63;;
26946;SDS011;14501;52.282;10.560;2023-05-27T00:23:59;15.60;;;6.82;;
26946;SDS011;14501;52.282;10.560;2023-05-27T00:26:25;15.30;;;7.25;;
26946;SDS011;14501;52.282;10.560;2023-05-27T00:28:51;17.15;;;6.68;;
26946;SDS011;14501;52.282;10.560;2023-05-27T00:31:17;19.55;;;7.85;;
26946;SDS011;14501;52.282;10.560;2023-05-27T00:33:42;18.52;;;7.18;;
26946;SDS011;14501;52.282;10.560;2023-05-27T00:36:09;12.68;;;7.13;;
26946;SDS011;14501;52.282;10.560;2023-05-27T00:38:35;12.20;;;6.60;;
26946;SDS011;14501;52.282;10.560;2023-05-27T00:41:01;14.68;;;7.50;;
26946;SDS011;14501;52.282;10.560;2023-05-27T00:43:28;14.13;;;7.15;;
26946;SDS011;14501;52.282;10.560;2023-05-27T00:45:57;23.55;;;7.03;;
26946;SDS011;14501;52.282;10.560;2023-05-27T00:48:23;17.63;;;7.47;;
26946;SDS011;14501;52.282;10.560;2023-05-27T00:50:49;16.75;;;7.40;;
26946;SDS011;14501;52.282;10.560;2023-05-27T00:53:15;20.92;;;7.30;;
26946;SDS011;14501;52.282;10.560;2023-05-27T00:55:41;16.15;;;7.85;;
26946;SDS011;14501;52.282;10.560;2023-05-27T00:58:07;21.02;;;7.72;;
26946;SDS011;14501;52.282;10.560;2023-05-27T01:00:34;17.95;;;7.30;;
26946;SDS011;14501;52.282;10.560;2023-05-27T01:03:02;14.25;;;6.97;;
26946;SDS011;14501;52.282;10.560;2023-05-27T01:05:29;17.73;;;7.35;;
26946;SDS011;14501;52.282;10.560;2023-05-27T01:08:18;20.33;;;7.30;;
26946;SDS011;14501;52.282;10.560;2023-05-27T01:10:54;14.88;;;6.97;;
26946;SDS011;14501;52.282;10.560;2023-05-27T01:15:54;13.50;;;6.32;;
26946;SDS011;14501;52.282;10.560;2023-05-27T01:18:24;22.33;;;7.40;;
26946;SDS011;14501;52.282;10.560;2023-05-27T01:20:54;18.33;;;7.38;;
26946;SDS011;14501;52.282;10.560;2023-05-27T01:23:30;23.15;;;7.65;;
26946;SDS011;14501;52.282;10.560;2023-05-27T01:25:56;15.80;;;6.78;;
26946;SDS011;14501;52.282;10.560;2023-05-27T01:28:22;19.90;;;7.30;;
26946;SDS011;14501;52.282;10.560;2023-05-27T01:30:48;21.60;;;8.05;;
26946;SDS011;14501;52.282;10.560;2023-05-27T01:33:20;18.85;;;8.25;;
26946;SDS011;14501;52.282;10.560;2023-05-27T01:35:51;17.38;;;7.30;;
26946;SDS011;14501;52.282;10.560;2023-05-27T01:38:24;17.45;;;6.70;;
26946;SDS011;14501;52.282;10.560;2023-05-27T01:40:53;24.02;;;7.68;;
26946;SDS011;14501;52.282;10.560;2023-05-27T01:43:20;14.35;;;6.93;;
26946;SDS011;14501;52.282;10.560;2023-05-27T01:45:47;15.32;;;7.25;;
26946;SDS011;14501;52.282;10.560;2023-05-27T01:48:12;13.70;;;7.20;;
26946;SDS011;14501;52.282;10.560;2023-05-27T01:50:38;20.10;;;7.35;;
26946;SDS011;14501;52.282;10.560;2023-05-27T01:53:04;19.63;;;7.13;;
26946;SDS011;14501;52.282;10.560;2023-05-27T01:55:30;16.13;;;6.70;;
26946;SDS011;14501;52.282;10.560;2023-05-27T01:57:56;15.68;;;7.32;;
26946;SDS011;14501;52.282;10.560;2023-05-27T02:00:22;14.85;;;6.88;;
26946;SDS011;14501;52.282;10.560;2023-05-27T02:02:49;16.70;;;7.43;;
26946;SDS011;14501;52.282;10.560;2023-05-27T02:05:15;14.60;;;7.30;;
26946;SDS011;14501;52.282;10.560;2023-05-27T02:07:40;20.60;;;7.65;;
26946;SDS011;14501;52.282;10.560;2023-05-27T02:10:06;14.80;;;7.35;;
26946;SDS011;14501;52.282;10.560;2023-05-27T02:12:32;18.77;;;7.80;;
26946;SDS011;14501;52.282;10.560;2023-05-27T02:14:58;12.55;;;6.93;;
26946;SDS011;14501;52.282;10.560;2023-05-27T02:17:24;17.27;;;7.40;;
26946;SDS011;14501;52.282;10.560;2023-05-27T02:19:50;18.30;;;7.18;;
26946;SDS011;14501;52.282;10.560;2023-05-27T02:22:16;15.18;;;7.22;;
26946;SDS011;14501;52.282;10.560;2023-05-27T02:24:42;15.23;;;7.45;;
26946;SDS011;14501;52.282;10.560;2023-05-27T02:27:08;18.02;;;6.55;;
26946;SDS011;14501;52.282;10.560;2023-05-27T02:29:33;19.02;;;7.15;;
26946;SDS011;14501;52.282;10.560;2023-05-27T02:31:59;21.77;;;8.07;;
26946;SDS011;14501;52.282;10.560;2023-05-27T02:34:25;17.02;;;7.60;;
26946;SDS011;14501;52.282;10.560;2023-05-27T02:36:50;11.90;;;6.57;;
26946;SDS011;14501;52.282;10.560;2023-05-27T02:39:16;15.25;;;6.93;;
26946;SDS011;14501;52.282;10.560;2023-05-27T02:41:42;16.38;;;6.30;;
26946;SDS011;14501;52.282;10.560;2023-05-27T02:44:08;17.60;;;6.85;;
26946;SDS011;14501;52.282;10.560;2023-05-27T02:46:34;19.77;;;6.80;;
26946;SDS011;14501;52.282;10.560;2023-05-27T02:48:59;16.45;;;6.90;;
26946;SDS011;14501;52.282;10.560;2023-05-27T02:51:25;19.55;;;7.05;;
26946;SDS011;14501;52.282;10.560;2023-05-27T02:53:50;18.42;;;7.88;;
26946;SDS011;14501;52.282;10.560;2023-05-27T02:56:17;15.82;;;7.53;;
26946;SDS011;14501;52.282;10.560;2023-05-27T02:58:42;20.02;;;7.28;;
26946;SDS011;14501;52.282;10.560;2023-05-27T03:01:08;19.58;;;6.72;;
26946;SDS011;14501;52.282;10.560;2023-05-27T03:03:34;15.93;;;7.30;;
26946;SDS011;14501;52.282;10.560;2023-05-27T03:06:00;12.45;;;6.57;;
26946;SDS011;14501;52.282;10.560;2023-05-27T03:08:25;15.32;;;6.65;;
26946;SDS011;14501;52.282;10.560;2023-05-27T03:10:51;17.10;;;6.70;;
26946;SDS011;14501;52.282;10.560;2023-05-27T03:13:17;29.25;;;7.65;;
26946;SDS011;14501;52.282;10.560;2023-05-27T03:15:42;14.32;;;7.20;;
26946;SDS011;14501;52.282;10.560;2023-05-27T03:18:08;22.27;;;7.80;;
26946;SDS011;14501;52.282;10.560;2023-05-27T03:20:34;14.18;;;6.90;;
26946;SDS011;14501;52.282;10.560;2023-05-27T03:22:59;19.35;;;6.55;;
26946;SDS011;14501;52.282;10.560;2023-05-27T03:25:25;21.13;;;7.47;;
26946;SDS011;14501;52.282;10.560;2023-05-27T03:27:51;18.58;;;8.10;;
26946;SDS011;14501;52.282;10.560;2023-05-27T03:30:18;14.05;;;6.88;;
26946;SDS011;14501;52.282;10.560;2023-05-27T03:32:44;17.58;;;7.72;;
26946;SDS011;14501;52.282;10.560;2023-05-27T03:35:09;14.70;;;7.93;;
26946;SDS011;14501;52.282;10.560;2023-05-27T03:37:35;16.25;;;8.10;;
26946;SDS011;14501;52.282;10.560;2023-05-27T03:40:01;17.05;;;8.00;;
26946;SDS011;14501;52.282;10.560;2023-05-27T03:42:27;16.75;;;7.57;;
26946;SDS011;14501;52.282;10.560;2023-05-27T03:44:52;13.75;;;7.18;;
26946;SDS011;14501;52.282;10.560;2023-05-27T03:47:18;22.73;;;8.48;;
26946;SDS011;14501;52.282;10.560;2023-05-27T03:49:45;14.38;;;6.68;;
26946;SDS011;14501;52.282;10.560;2023-05-27T03:52:11;14.00;;;6.53;;
26946;SDS011;14501;52.282;10.560;2023-05-27T03:54:37;17.27;;;6.40;;
26946;SDS011;14501;52.282;10.560;2023-05-27T03:57:03;13.40;;;7.68;;
26946;SDS011;14501;52.282;10.560;2023-05-27T03:59:29;13.40;;;6.93;;
26946;SDS011;14501;52.282;10.560;2023-05-27T04:01:54;11.95;;;6.68;;
26946;SDS011;14501;52.282;10.560;2023-05-27T04:04:20;13.82;;;7.38;;
26946;SDS011;14501;52.282;10.560;2023-05-27T04:06:46;19.08;;;7.88;;
26946;SDS011;14501;52.282;10.560;2023-05-27T04:09:11;15.50;;;7.05;;
26946;SDS011;14501;52.282;10.560;2023-05-27T04:11:37;14.23;;;7.20;;
26946;SDS011;14501;52.282;10.560;2023-05-27T04:14:03;14.20;;;7.45;;
26946;SDS011;14501;52.282;10.560;2023-05-27T04:16:31;17.20;;;7.70;;
26946;SDS011;14501;52.282;10.560;2023-05-27T04:18:59;16.55;;;7.78;;
26946;SDS011;14501;52.282;10.560;2023-05-27T04:21:25;18.10;;;7.18;;
26946;SDS011;14501;52.282;10.560;2023-05-27T04:23:51;14.77;;;7.30;;
26946;SDS011;14501;52.282;10.560;2023-05-27T04:26:16;17.65;;;7.32;;
26946;SDS011;14501;52.282;10.560;2023-05-27T04:28:43;18.00;;;7.78;;
26946;SDS011;14501;52.282;10.560;2023-05-27T04:31:10;13.45;;;6.95;;
26946;SDS011;14501;52.282;10.560;2023-05-27T04:33:38;13.98;;;7.85;;
26946;SDS011;14501;52.282;10.560;2023-05-27T04:36:05;13.10;;;6.80;;
26946;SDS011;14501;52.282;10.560;2023-05-27T04:38:31;16.20;;;7.50;;
26946;SDS011;14501;52.282;10.560;2023-05-27T04:40:57;12.98;;;7.40;;
26946;SDS011;14501;52.282;10.560;2023-05-27T04:43:23;21.05;;;7.72;;
26946;SDS011;14501;52.282;10.560;2023-05-27T04:45:51;15.82;;;7.55;;
26946;SDS011;14501;52.282;10.560;2023-05-27T04:48:18;18.23;;;7.68;;
26946;SDS011;14501;52.282;10.560;2023-05-27T04:50:44;19.73;;;8.18;;
26946;SDS011;14501;52.282;10.560;2023-05-27T04:53:10;18.10;;;7.15;;
26946;SDS011;14501;52.282;10.560;2023-05-27T04:55:36;17.85;;;7.53;;
26946;SDS011;14501;52.282;10.560;2023-05-27T04:58:03;16.77;;;6.93;;
26946;SDS011;14501;52.282;10.560;2023-05-27T05:00:30;15.68;;;6.97;;
26946;SDS011;14501;52.282;10.560;2023-05-27T05:03:18;13.48;;;6.93;;
26946;SDS011;14501;52.282;10.560;2023-05-27T05:05:50;15.25;;;7.18;;
26946;SDS011;14501;52.282;10.560;2023-05-27T05:08:16;12.27;;;6.97;;
26946;SDS011;14501;52.282;10.560;2023-05-27T05:10:48;14.98;;;6.38;;
26946;SDS011;14501;52.282;10.560;2023-05-27T05:13:16;18.77;;;6.85;;
26946;SDS011;14501;52.282;10.560;2023-05-27T05:15:42;16.40;;;6.90;;
26946;SDS011;14501;52.282;10.560;2023-05-27T05:18:11;14.75;;;6.70;;
26946;SDS011;14501;52.282;10.560;2023-05-27T05:20:37;11.80;;;6.38;;
26946;SDS011;14501;52.282;10.560;2023-05-27T05:23:02;14.85;;;6.93;;
26946;SDS011;14501;52.282;10.560;2023-05-27T05:25:28;15.52;;;6.13;;
26946;SDS011;14501;52.282;10.560;2023-05-27T05:27:55;15.70;;;7.13;;
26946;SDS011;14501;52.282;10.560;2023-05-27T05:30:21;14.90;;;7.18;;
26946;SDS011;14501;52.282;10.560;2023-05-27T05:32:47;18.30;;;7.32;;
26946;SDS011;14501;52.282;10.560;2023-05-27T05:35:13;14.27;;;6.82;;
26946;SDS011;14501;52.282;10.560;2023-05-27T05:37:38;18.42;;;7.55;;
26946;SDS011;14501;52.282;10.560;2023-05-27T05:40:04;16.30;;;6.85;;
26946;SDS011;14501;52.282;10.560;2023-05-27T05:42:30;14.73;;;6.68;;
26946;SDS011;14501;52.282;10.560;2023-05-27T05:44:56;15.75;;;7.00;;
26946;SDS011;14501;52.282;10.560;2023-05-27T05:47:21;14.25;;;7.07;;
26946;SDS011;14501;52.282;10.560;2023-05-27T05:49:47;14.95;;;5.25;;
26946;SDS011;14501;52.282;10.560;2023-05-27T05:52:13;13.35;;;6.57;;
26946;SDS011;14501;52.282;10.560;2023-05-27T05:54:38;11.35;;;5.30;;
26946;SDS011;14501;52.282;10.560;2023-05-27T05:57:04;12.05;;;4.97;;
26946;SDS011;14501;52.282;10.560;2023-05-27T05:59:30;11.50;;;5.20;;
26946;SDS011;14501;52.282;10.560;2023-05-27T06:01:56;10.18;;;4.53;;
26946;SDS011;14501;52.282;10.560;2023-05-27T06:04:22;7.20;;;4.13;;
26946;SDS011;14501;52.282;10.560;2023-05-27T06:06:48;12.25;;;4.30;;
26946;SDS011;14501;52.282;10.560;2023-05-27T06:09:13;9.63;;;4.65;;
26946;SDS011;14501;52.282;10.560;2023-05-27T06:11:40;10.65;;;4.75;;
26946;SDS011;14501;52.282;10.560;2023-05-27T06:14:05;10.75;;;4.63;;
26946;SDS011;14501;52.282;10.560;2023-05-27T06:16:32;11.90;;;4.50;;
26946;SDS011;14501;52.282;10.560;2023-05-27T06:19:00;9.77;;;4.45;;
26946;SDS011;14501;52.282;10.560;2023-05-27T06:21:26;8.75;;;4.13;;
26946;SDS011;14501;52.282;10.560;2023-05-27T06:23:52;11.10;;;4.75;;
26946;SDS011;14501;52.282;10.560;2023-05-27T06:26:17;10.43;;;4.70;;
26946;SDS011;14501;52.282;10.560;2023-05-27T06:28:43;14.18;;;4.13;;
26946;SDS011;14501;52.282;10.560;2023-05-27T06:31:09;12.35;;;4.05;;
26946;SDS011;14501;52.282;10.560;2023-05-27T06:33:35;10.20;;;4.30;;
26946;SDS011;14501;52.282;10.560;2023-05-27T06:36:00;9.85;;;4.03;;
26946;SDS011;14501;52.282;10.560;2023-05-27T06:38:26;13.93;;;4.40;;
26946;SDS011;14501;52.282;10.560;2023-05-27T06:40:52;12.27;;;4.30;;
26946;SDS011;14501;52.282;10.560;2023-05-27T06:43:17;9.13;;;3.67;;
26946;SDS011;14501;52.282;10.560;2023-05-27T06:45:43;10.70;;;3.53;;
26946;SDS011;14501;52.282;10.560;2023-05-27T06:48:08;9.02;;;3.53;;
26946;SDS011;14501;52.282;10.560;2023-05-27T06:50:34;15.90;;;4.15;;
26946;SDS011;14501;52.282;10.560;2023-05-27T06:53:00;9.50;;;3.85;;
26946;SDS011;14501;52.282;10.560;2023-05-27T06:55:25;11.07;;;3.30;;
26946;SDS011;14501;52.282;10.560;2023-05-27T06:57:51;8.68;;;2.90;;
26946;SDS011;14501;52.282;10.560;2023-05-27T07:00:16;10.50;;;4.03;;
26946;SDS011;14501;52.282;10.560;2023-05-27T07:02:42;11.50;;;4.07;;
26946;SDS011;14501;52.282;10.560;2023-05-27T07:05:08;8.35;;;3.60;;
26946;SDS011;14501;52.282;10.560;2023-05-27T07:07:34;11.48;;;3.38;;
26946;SDS011;14501;52.282;10.560;2023-05-27T07:09:59;8.18;;;3.10;;
26946;SDS011;14501;52.282;10.560;2023-05-27T07:12:25;12.40;;;3.20;;
26946;SDS011;14501;52.282;10.560;2023-05-27T07:14:50;11.60;;;3.53;;
26946;SDS011;14501;52.282;10.560;2023-05-27T07:17:16;14.75;;;3.63;;
26946;SDS011;14501;52.282;10.560;2023-05-27T07:19:42;5.80;;;2.88;;
26946;SDS011;14501;52.282;10.560;2023-05-27T07:22:07;11.15;;;3.22;;
26946;SDS011;14501;52.282;10.560;2023-05-27T07:24:33;7.43;;;2.40;;
26946;SDS011;14501;52.282;10.560;2023-05-27T07:26:58;7.40;;;2.97;;
26946;SDS011;14501;52.282;10.560;2023-05-27T07:29:24;8.70;;;2.78;;
26946;SDS011;14501;52.282;10.560;2023-05-27T07:31:50;10.13;;;3.50;;
26946;SDS011;14501;52.282;10.560;2023-05-27T07:34:16;7.40;;;2.70;;
26946;SDS011;14501;52.282;10.560;2023-05-27T07:36:41;7.50;;;2.50;;
26946;SDS011;14501;52.282;10.560;2023-05-27T07:39:07;8.20;;;3.03;;
26946;SDS011;14501;52.282;10.560;2023-05-27T07:41:32;6.97;;;2.80;;
26946;SDS011;14501;52.282;10.560;2023-05-27T07:43:58;8.88;;;2.80;;
26946;SDS011;14501;52.282;10.560;2023-05-27T07:46:24;7.25;;;2.60;;
26946;SDS011;14501;52.282;10.560;2023-05-27T07:48:50;11.07;;;2.72;;
26946;SDS011;14501;52.282;10.560;2023-05-27T07:51:16;6.30;;;2.60;;
26946;SDS011;14501;52.282;10.560;2023-05-27T07:53:41;7.28;;;2.53;;
26946;SDS011;14501;52.282;10.560;2023-05-27T07:56:07;5.25;;;2.20;;
26946;SDS011;14501;52.282;10.560;2023-05-27T07:58:32;7.50;;;2.47;;
26946;SDS011;14501;52.282;10.560;2023-05-27T08:00:58;6.25;;;2.25;;
26946;SDS011;14501;52.282;10.560;2023-05-27T08:03:24;6.07;;;2.75;;
26946;SDS011;14501;52.282;10.560;2023-05-27T08:05:49;5.45;;;2.30;;
26946;SDS011;14501;52.282;10.560;2023-05-27T08:08:15;8.52;;;2.60;;
26946;SDS011;14501;52.282;10.560;2023-05-27T08:10:40;7.38;;;2.83;;
26946;SDS011;14501;52.282;10.560;2023-05-27T08:13:06;6.88;;;2.17;;
26946;SDS011;14501;52.282;10.560;2023-05-27T08:15:31;6.60;;;2.75;;
26946;SDS011;14501;52.282;10.560;2023-05-27T08:17:58;9.30;;;3.50;;
26946;SDS011;14501;52.282;10.560;2023-05-27T08:20:24;5.03;;;2.58;;
26946;SDS011;14501;52.282;10.560;2023-05-27T08:22:50;8.15;;;2.90;;
26946;SDS011;14501;52.282;10.560;2023-05-27T08:25:16;7.85;;;2.50;;
26946;SDS011;14501;52.282;10.560;2023-05-27T08:27:47;7.00;;;2.63;;
26946;SDS011;14501;52.282;10.560;2023-05-27T08:30:17;6.80;;;2.10;;
26946;SDS011;14501;52.282;10.560;2023-05-27T08:32:43;8.45;;;3.10;;
26946;SDS011;14501;52.282;10.560;2023-05-27T08:35:09;9.75;;;2.95;;
26946;SDS011;14501;52.282;10.560;2023-05-27T08:37:36;9.82;;;2.58;;
26946;SDS011;14501;52.282;10.560;2023-05-27T08:40:02;6.72;;;2.47;;
26946;SDS011;14501;52.282;10.560;2023-05-27T08:42:31;10.35;;;2.88;;
26946;SDS011;14501;52.282;10.560;2023-05-27T08:44:57;9.13;;;2.50;;
26946;SDS011;14501;52.282;10.560;2023-05-27T08:47:28;6.40;;;2.53;;
26946;SDS011;14501;52.282;10.560;2023-05-27T08:49:55;8.07;;;2.65;;
26946;SDS011;14501;52.282;10.560;2023-05-27T08:52:22;8.25;;;3.20;;
26946;SDS011;14501;52.282;10.560;2023-05-27T08:54:50;10.50;;;2.85;;
26946;SDS011;14501;52.282;10.560;2023-05-27T08:57:17;7.75;;;2.42;;
26946;SDS011;14501;52.282;10.560;2023-05-27T08:59:50;10.15;;;3.33;;
26946;SDS011;14501;52.282;10.560;2023-05-27T09:02:16;9.60;;;3.00;;
26946;SDS011;14501;52.282;10.560;2023-05-27T09:04:44;7.90;;;2.70;;
26946;SDS011;14501;52.282;10.560;2023-05-27T09:07:11;10.70;;;2.50;;
26946;SDS011;14501;52.282;10.560;2023-05-27T09:09:38;6.55;;;2.40;;
26946;SDS011;14501;52.282;10.560;2023-05-27T09:12:04;8.75;;;2.40;;
26946;SDS011;14501;52.282;10.560;2023-05-27T09:14:31;9.35;;;2.72;;
26946;SDS011;14501;52.282;10.560;2023-05-27T09:16:57;7.35;;;2.78;;
26946;SDS011;14501;52.282;10.560;2023-05-27T09:19:29;6.72;;;2.38;;
26946;SDS011;14501;52.282;10.560;2023-05-27T09:21:55;6.38;;;2.65;;
26946;SDS011;14501;52.282;10.560;2023-05-27T09:24:24;9.55;;;3.22;;
26946;SDS011;14501;52.282;10.560;2023-05-27T09:26:51;12.25;;;2.80;;
26946;SDS011;14501;52.282;10.560;2023-05-27T09:29:20;7.25;;;2.75;;
26946;SDS011;14501;52.282;10.560;2023-05-27T09:31:48;6.30;;;2.87;;
26946;SDS011;14501;52.282;10.560;2023-05-27T09:34:18;9.65;;;2.90;;
26946;SDS011;14501;52.282;10.560;2023-05-27T09:39:13;10.38;;;3.00;;
26946;SDS011;14501;52.282;10.560;2023-05-27T09:41:40;7.88;;;3.13;;
26946;SDS011;14501;52.282;10.560;2023-05-27T09:44:06;8.98;;;2.70;;
26946;SDS011;14501;52.282;10.560;2023-05-27T09:46:33;7.20;;;2.60;;
26946;SDS011;14501;52.282;10.560;2023-05-27T09:49:00;6.18;;;2.60;;
26946;SDS011;14501;52.282;10.560;2023-05-27T09:51:27;7.55;;;2.40;;
26946;SDS011;14501;52.282;10.560;2023-05-27T09:53:54;9.65;;;2.75;;
26946;SDS011;14501;52.282;10.560;2023-05-27T09:56:24;7.65;;;2.50;;
26946;SDS011;14501;52.282;10.560;2023-05-27T09:58:55;7.45;;;2.47;;
26946;SDS011;14501;52.282;10.560;2023-05-27T10:01:25;7.72;;;3.05;;
26946;SDS011;14501;52.282;10.560;2023-05-27T10:03:54;8.80;;;2.72;;
26946;SDS011;14501;52.282;10.560;2023-05-27T10:06:20;11.73;;;2.75;;
26946;SDS011;14501;52.282;10.560;2023-05-27T10:08:49;8.68;;;3.28;;
26946;SDS011;14501;52.282;10.560;2023-05-27T10:11:17;5.50;;;2.20;;
26946;SDS011;14501;52.282;10.560;2023-05-27T10:13:44;7.75;;;2.80;;
26946;SDS011;14501;52.282;10.560;2023-05-27T10:16:18;9.38;;;2.63;;
26946;SDS011;14501;52.282;10.560;2023-05-27T10:18:47;5.05;;;2.13;;
26946;SDS011;14501;52.282;10.560;2023-05-27T10:21:21;11.05;;;3.15;;
26946;SDS011;14501;52.282;10.560;2023-05-27T10:23:52;8.40;;;2.45;;
26946;SDS011;14501;52.282;10.560;2023-05-27T10:26:30;8.38;;;2.60;;
26946;SDS011;14501;52.282;10.560;2023-05-27T10:29:10;8.40;;;2.85;;
26946;SDS011;14501;52.282;10.560;2023-05-27T10:31:49;7.03;;;2.60;;
26946;SDS011;14501;52.282;10.560;2023-05-27T10:34:15;8.90;;;2.45;;
26946;SDS011;14501;52.282;10.560;2023-05-27T10:36:41;8.93;;;2.42;;
26946;SDS011;14501;52.282;10.560;2023-05-27T10:41:41;8.45;;;3.35;;
26946;SDS011;14501;52.282;10.560;2023-05-27T10:44:24;10.60;;;3.55;;
26946;SDS011;14501;52.282;10.560;2023-05-27T10:47:13;9.43;;;2.85;;
26946;SDS011;14501;52.282;10.560;2023-05-27T10:49:40;8.55;;;2.78;;
26946;SDS011;14501;52.282;10.560;2023-05-27T10:52:11;9.15;;;2.90;;
26946;SDS011;14501;52.282;10.560;2023-05-27T10:54:38;8.95;;;3.00;;
26946;SDS011;14501;52.282;10.560;2023-05-27T10:57:11;7.78;;;2.78;;
26946;SDS011;14501;52.282;10.560;2023-05-27T11:02:09;7.10;;;2.20;;
26946;SDS011;14501;52.282;10.560;2023-05-27T11:04:36;11.57;;;2.90;;
26946;SDS011;14501;52.282;10.560;2023-05-27T11:07:02;8.02;;;2.42;;
26946;SDS011;14501;52.282;10.560;2023-05-27T11:09:29;6.72;;;2.80;;
26946;SDS011;14501;52.282;10.560;2023-05-27T11:12:01;7.40;;;2.75;;
26946;SDS011;14501;52.282;10.560;2023-05-27T11:14:30;8.57;;;2.65;;
26946;SDS011;14501;52.282;10.560;2023-05-27T11:16:56;5.80;;;2.17;;
26946;SDS011;14501;52.282;10.560;2023-05-27T11:19:21;8.82;;;2.75;;
26946;SDS011;14501;52.282;10.560;2023-05-27T11:21:47;9.75;;;2.60;;
26946;SDS011;14501;52.282;10.560;2023-05-27T11:24:14;9.57;;;2.75;;
26946;SDS011;14501;52.282;10.560;2023-05-27T11:26:42;8.32;;;2.60;;
26946;SDS011;14501;52.282;10.560;2023-05-27T11:29:11;11.73;;;3.03;;
26946;SDS011;14501;52.282;10.560;2023-05-27T11:31:37;5.10;;;2.30;;
26946;SDS011;14501;52.282;10.560;2023-05-27T11:34:10;8.85;;;2.75;;
26946;SDS011;14501;52.282;10.560;2023-05-27T11:36:37;9.55;;;2.10;;
26946;SDS011;14501;52.282;10.560;2023-05-27T11:39:03;6.22;;;2.47;;
26946;SDS011;14501;52.282;10.560;2023-05-27T11:41:30;7.80;;;2.92;;
26946;SDS011;14501;52.282;10.560;2023-05-27T11:43:57;7.15;;;3.05;;
26946;SDS011;14501;52.282;10.560;2023-05-27T11:49:24;8.63;;;2.30;;
26946;SDS011;14501;52.282;10.560;2023-05-27T11:51:50;10.55;;;2.50;;
26946;SDS011;14501;52.282;10.560;2023-05-27T11:54:19;8.40;;;2.65;;
26946;SDS011;14501;52.282;10.560;2023-05-27T11:56:47;7.07;;;2.42;;
26946;SDS011;14501;52.282;10.560;2023-05-27T11:59:14;5.00;;;1.92;;
26946;SDS011;14501;52.282;10.560;2023-05-27T12:01:40;6.35;;;2.35;;
26946;SDS011;14501;52.282;10.560;2023-05-27T12:04:06;12.65;;;2.70;;
26946;SDS011;14501;52.282;10.560;2023-05-27T12:06:32;5.07;;;2.13;;
26946;SDS011;14501;52.282;10.560;2023-05-27T12:08:58;6.82;;;2.53;;
26946;SDS011;14501;52.282;10.560;2023-05-27T12:11:23;10.02;;;2.92;;
26946;SDS011;14501;52.282;10.560;2023-05-27T12:13:50;6.55;;;2.70;;
26946;SDS011;14501;52.282;10.560;2023-05-27T12:16:17;6.88;;;2.40;;
26946;SDS011;14501;52.282;10.560;2023-05-27T12:18:43;9.02;;;2.45;;
26946;SDS011;14501;52.282;10.560;2023-05-27T12:21:10;9.15;;;2.28;;
26946;SDS011;14501;52.282;10.560;2023-05-27T12:23:36;7.10;;;2.50;;
26946;SDS011;14501;52.282;10.560;2023-05-27T12:26:02;8.40;;;2.72;;
26946;SDS011;14501;52.282;10.560;2023-05-27T12:28:27;7.47;;;2.47;;
26946;SDS011;14501;52.282;10.560;2023-05-27T12:30:53;8.70;;;2.88;;
26946;SDS011;14501;52.282;10.560;2023-05-27T12:33:19;5.72;;;2.50;;
26946;SDS011;14501;52.282;10.560;2023-05-27T12:35:44;5.72;;;2.40;;
26946;SDS011;14501;52.282;10.560;2023-05-27T12:38:10;7.90;;;2.00;;
26946;SDS011;14501;52.282;10.560;2023-05-27T12:40:36;9.88;;;2.45;;
26946;SDS011;14501;52.282;10.560;2023-05-27T12:43:01;6.85;;;2.72;;
26946;SDS011;14501;52.282;10.560;2023-05-27T12:45:31;9.98;;;2.33;;
26946;SDS011;14501;52.282;10.560;2023-05-27T12:47:57;6.40;;;2.83;;
26946;SDS011;14501;52.282;10.560;2023-05-27T12:50:23;8.70;;;2.53;;
26946;SDS011;14501;52.282;10.560;2023-05-27T12:52:49;8.02;;;2.50;;
26946;SDS011;14501;52.282;10.560;2023-05-27T12:55:17;5.70;;;2.25;;
26946;SDS011;14501;52.282;10.560;2023-05-27T12:57:48;10.07;;;2.92;;
26946;SDS011;14501;52.282;10.560;2023-05-27T13:00:15;5.90;;;2.70;;
26946;SDS011;14501;52.282;10.560;2023-05-27T13:02:41;5.70;;;2.35;;
26946;SDS011;14501;52.282;10.560;2023-05-27T13:05:08;6.35;;;2.25;;
26946;SDS011;14501;52.282;10.560;2023-05-27T13:07:34;7.40;;;2.10;;
26946;SDS011;14501;52.282;10.560;2023-05-27T13:10:01;8.15;;;2.40;;
26946;SDS011;14501;52.282;10.560;2023-05-27T13:12:29;10.18;;;2.45;;
26946;SDS011;14501;52.282;10.560;2023-05-27T13:14:56;9.93;;;2.55;;
26946;SDS011;14501;52.282;10.560;2023-05-27T13:17:22;5.60;;;2.33;;
26946;SDS011;14501;52.282;10.560;2023-05-27T13:19:48;5.63;;;2.20;;
26946;SDS011;14501;52.282;10.560;2023-05-27T13:22:14;11.10;;;2.60;;
26946;SDS011;14501;52.282;10.560;2023-05-27T13:24:40;7.40;;;2.30;;
26946;SDS011;14501;52.282;10.560;2023-05-27T13:27:06;5.93;;;2.47;;
26946;SDS011;14501;52.282;10.560;2023-05-27T13:29:33;6.65;;;2.60;;
26946;SDS011;14501;52.282;10.560;2023-05-27T13:31:59;8.80;;;2.42;;
26946;SDS011;14501;52.282;10.560;2023-05-27T13:34:25;7.80;;;2.58;;
26946;SDS011;14501;52.282;10.560;2023-05-27T13:36:53;6.10;;;2.25;;
26946;SDS011;14501;52.282;10.560;2023-05-27T13:39:18;8.77;;;2.58;;
26946;SDS011;14501;52.282;10.560;2023-05-27T13:41:44;9.35;;;2.40;;
26946;SDS011;14501;52.282;10.560;2023-05-27T13:44:10;5.57;;;2.85;;
26946;SDS011;14501;52.282;10.560;2023-05-27T13:46:36;6.32;;;2.40;;
26946;SDS011;14501;52.282;10.560;2023-05-27T13:49:02;6.05;;;2.50;;
26946;SDS011;14501;52.282;10.560;2023-05-27T13:51:29;7.35;;;2.65;;
26946;SDS011;14501;52.282;10.560;2023-05-27T13:53:55;6.28;;;2.28;;
26946;SDS011;14501;52.282;10.560;2023-05-27T13:56:21;7.97;;;2.28;;
26946;SDS011;14501;52.282;10.560;2023-05-27T13:58:49;6.97;;;3.15;;
26946;SDS011;14501;52.282;10.560;2023-05-27T14:01:16;7.25;;;2.22;;
26946;SDS011;14501;52.282;10.560;2023-05-27T14:03:42;7.88;;;2.55;;
26946;SDS011;14501;52.282;10.560;2023-05-27T14:06:07;6.68;;;2.85;;
26946;SDS011;14501;52.282;10.560;2023-05-27T14:08:34;6.28;;;2.55;;
26946;SDS011;14501;52.282;10.560;2023-05-27T14:11:00;7.45;;;2.53;;
26946;SDS011;14501;52.282;10.560;2023-05-27T14:13:26;7.20;;;2.53;;
26946;SDS011;14501;52.282;10.560;2023-05-27T14:15:52;5.25;;;2.35;;
26946;SDS011;14501;52.282;10.560;2023-05-27T14:18:18;7.78;;;2.50;;
26946;SDS011;14501;52.282;10.560;2023-05-27T14:20:44;7.20;;;2.50;;
26946;SDS011;14501;52.282;10.560;2023-05-27T14:23:10;8.20;;;3.00;;
26946;SDS011;14501;52.282;10.560;2023-05-27T14:25:37;8.02;;;2.58;;
26946;SDS011;14501;52.282;10.560;2023-05-27T14:28:03;7.90;;;2.65;;
26946;SDS011;14501;52.282;10.560;2023-05-27T14:30:31;7.28;;;2.45;;
26946;SDS011;14501;52.282;10.560;2023-05-27T14:33:05;7.63;;;2.58;;
26946;SDS011;14501;52.282;10.560;2023-05-27T14:35:34;5.95;;;2.17;;
26946;SDS011;14501;52.282;10.560;2023-05-27T14:38:01;4.43;;;2.42;;
26946;SDS011;14501;52.282;10.560;2023-05-27T14:40:27;8.00;;;2.38;;